Terminal Aerodrome Forecast
Issued by NWS

Current Version | Previous Version | Graphics & Text | Print | Product List | Glossary On
Versions: 1 2 3 4 5 6 7 8 9 10 11 12 13 14 15 16 17 18 19 20 21 22 23
178
FTUS41 KRLX 071437 AAD
TAFCKB
TAF AMD
KCKB 071437Z 0715/0812 24005KT P6SM BKN015
     FM072200 25005KT P6SM SCT015
     FM072300 24004KT P6SM SCT100
     FM080200 00000KT P6SM SCT110
     FM080400 00000KT P6SM BKN110=

USA.gov is the U.S. government's official web portal to all federal, state and local government web resources and services.